El Reno, Oklahoma
Current Conditions -  °F | °C
As of 6:15 AM on Friday 28 Nov 2014 (Local Time) from KRQO Reporting Station
Clear Clear  
Wind Chill: 31°   Ceiling: Unl
Heat Index: 39°   Visibility: NA
Dew Point: 30°   Wind: 15mph
Humidity: 70%   Direction: 180°S
Pressure: 30.09"   Gusts: NA
Location:  35.53°N, 97.96°W
Report Text: KRQO 281215Z AUTO 18013KT CLR 04/M01 A3009 RMK AO2 PWINO
Loading
Personal Weather Stations






























Interactive Weather Map New forecast layout! Learn more

10-Day Weather Forecast

Advertisements
Track Severe Weather on mobile